sensor_id;sensor_type;location;lat;lon;timestamp;P1;durP1;ratioP1;P2;durP2;ratioP2
38085;SDS011;23896;50.678;10.924;2023-06-26T00:00:16;5.60;;;5.20;;
38085;SDS011;23896;50.678;10.924;2023-06-26T00:02:42;6.10;;;5.60;;
38085;SDS011;23896;50.678;10.924;2023-06-26T00:05:08;6.20;;;5.70;;
38085;SDS011;23896;50.678;10.924;2023-06-26T00:07:34;5.70;;;5.20;;
38085;SDS011;23896;50.678;10.924;2023-06-26T00:10:03;5.50;;;5.10;;
38085;SDS011;23896;50.678;10.924;2023-06-26T00:12:29;5.72;;;5.32;;
38085;SDS011;23896;50.678;10.924;2023-06-26T00:14:55;5.60;;;5.15;;
38085;SDS011;23896;50.678;10.924;2023-06-26T00:17:21;6.03;;;5.50;;
38085;SDS011;23896;50.678;10.924;2023-06-26T00:19:48;6.07;;;5.63;;
38085;SDS011;23896;50.678;10.924;2023-06-26T00:22:14;7.25;;;5.88;;
38085;SDS011;23896;50.678;10.924;2023-06-26T00:24:40;6.07;;;5.47;;
38085;SDS011;23896;50.678;10.924;2023-06-26T00:27:07;5.93;;;5.03;;
38085;SDS011;23896;50.678;10.924;2023-06-26T00:29:34;5.72;;;5.22;;
38085;SDS011;23896;50.678;10.924;2023-06-26T00:32:00;7.18;;;5.13;;
38085;SDS011;23896;50.678;10.924;2023-06-26T00:34:29;8.23;;;6.13;;
38085;SDS011;23896;50.678;10.924;2023-06-26T00:36:56;5.35;;;4.95;;
38085;SDS011;23896;50.678;10.924;2023-06-26T00:39:22;6.05;;;5.55;;
38085;SDS011;23896;50.678;10.924;2023-06-26T00:41:51;6.18;;;5.53;;
38085;SDS011;23896;50.678;10.924;2023-06-26T00:44:18;6.07;;;5.45;;
38085;SDS011;23896;50.678;10.924;2023-06-26T00:46:46;6.18;;;5.68;;
38085;SDS011;23896;50.678;10.924;2023-06-26T00:49:12;6.10;;;5.50;;
38085;SDS011;23896;50.678;10.924;2023-06-26T00:51:38;6.43;;;5.82;;
38085;SDS011;23896;50.678;10.924;2023-06-26T00:54:04;6.20;;;5.60;;
38085;SDS011;23896;50.678;10.924;2023-06-26T00:56:31;11.23;;;5.80;;
38085;SDS011;23896;50.678;10.924;2023-06-26T00:58:57;5.80;;;5.30;;
38085;SDS011;23896;50.678;10.924;2023-06-26T01:01:23;6.72;;;5.32;;
38085;SDS011;23896;50.678;10.924;2023-06-26T01:03:50;6.30;;;5.80;;
38085;SDS011;23896;50.678;10.924;2023-06-26T01:06:20;5.57;;;5.18;;
38085;SDS011;23896;50.678;10.924;2023-06-26T01:08:47;5.63;;;5.13;;
38085;SDS011;23896;50.678;10.924;2023-06-26T01:11:14;5.88;;;5.38;;
38085;SDS011;23896;50.678;10.924;2023-06-26T01:13:41;6.45;;;5.88;;
38085;SDS011;23896;50.678;10.924;2023-06-26T01:16:09;5.93;;;5.43;;
38085;SDS011;23896;50.678;10.924;2023-06-26T01:18:36;5.93;;;5.43;;
38085;SDS011;23896;50.678;10.924;2023-06-26T01:21:07;6.55;;;5.32;;
38085;SDS011;23896;50.678;10.924;2023-06-26T01:23:39;6.32;;;5.82;;
38085;SDS011;23896;50.678;10.924;2023-06-26T01:26:14;8.80;;;5.78;;
38085;SDS011;23896;50.678;10.924;2023-06-26T01:28:42;5.95;;;5.45;;
38085;SDS011;23896;50.678;10.924;2023-06-26T01:31:10;5.72;;;5.28;;
38085;SDS011;23896;50.678;10.924;2023-06-26T01:33:36;5.80;;;5.38;;
38085;SDS011;23896;50.678;10.924;2023-06-26T01:36:02;6.13;;;4.97;;
38085;SDS011;23896;50.678;10.924;2023-06-26T01:38:29;6.35;;;5.78;;
38085;SDS011;23896;50.678;10.924;2023-06-26T01:40:56;6.00;;;5.50;;
38085;SDS011;23896;50.678;10.924;2023-06-26T01:43:28;5.30;;;4.88;;
38085;SDS011;23896;50.678;10.924;2023-06-26T01:45:57;5.80;;;5.30;;
38085;SDS011;23896;50.678;10.924;2023-06-26T01:48:27;6.28;;;5.75;;
38085;SDS011;23896;50.678;10.924;2023-06-26T01:50:54;6.43;;;5.63;;
38085;SDS011;23896;50.678;10.924;2023-06-26T01:53:24;5.72;;;5.10;;
38085;SDS011;23896;50.678;10.924;2023-06-26T01:55:51;7.78;;;5.40;;
38085;SDS011;23896;50.678;10.924;2023-06-26T01:58:21;7.07;;;5.68;;
38085;SDS011;23896;50.678;10.924;2023-06-26T02:00:48;5.68;;;5.13;;
38085;SDS011;23896;50.678;10.924;2023-06-26T02:03:15;6.15;;;5.60;;
38085;SDS011;23896;50.678;10.924;2023-06-26T02:05:41;5.97;;;5.40;;
38085;SDS011;23896;50.678;10.924;2023-06-26T02:08:08;5.82;;;5.35;;
38085;SDS011;23896;50.678;10.924;2023-06-26T02:10:38;6.50;;;5.60;;
38085;SDS011;23896;50.678;10.924;2023-06-26T02:16:07;7.75;;;5.20;;
38085;SDS011;23896;50.678;10.924;2023-06-26T02:18:35;5.47;;;5.05;;
38085;SDS011;23896;50.678;10.924;2023-06-26T02:21:03;5.68;;;5.13;;
38085;SDS011;23896;50.678;10.924;2023-06-26T02:23:29;6.28;;;5.07;;
38085;SDS011;23896;50.678;10.924;2023-06-26T02:25:55;5.97;;;5.47;;
38085;SDS011;23896;50.678;10.924;2023-06-26T02:28:21;5.40;;;4.88;;
38085;SDS011;23896;50.678;10.924;2023-06-26T02:30:48;5.85;;;5.35;;
38085;SDS011;23896;50.678;10.924;2023-06-26T02:33:14;6.07;;;5.45;;
38085;SDS011;23896;50.678;10.924;2023-06-26T02:35:40;7.18;;;5.15;;
38085;SDS011;23896;50.678;10.924;2023-06-26T02:38:06;5.82;;;5.25;;
38085;SDS011;23896;50.678;10.924;2023-06-26T02:40:33;5.72;;;5.18;;
38085;SDS011;23896;50.678;10.924;2023-06-26T02:42:59;5.72;;;5.22;;
38085;SDS011;23896;50.678;10.924;2023-06-26T02:45:25;4.95;;;4.53;;
38085;SDS011;23896;50.678;10.924;2023-06-26T02:47:52;5.85;;;5.15;;
38085;SDS011;23896;50.678;10.924;2023-06-26T02:50:20;5.78;;;5.35;;
38085;SDS011;23896;50.678;10.924;2023-06-26T02:52:47;6.20;;;5.47;;
38085;SDS011;23896;50.678;10.924;2023-06-26T02:55:20;6.25;;;5.75;;
38085;SDS011;23896;50.678;10.924;2023-06-26T02:57:46;5.70;;;5.20;;
38085;SDS011;23896;50.678;10.924;2023-06-26T03:00:12;6.13;;;5.53;;
38085;SDS011;23896;50.678;10.924;2023-06-26T03:02:39;5.80;;;5.32;;
38085;SDS011;23896;50.678;10.924;2023-06-26T03:05:05;5.45;;;5.03;;
38085;SDS011;23896;50.678;10.924;2023-06-26T03:07:34;6.47;;;5.25;;
38085;SDS011;23896;50.678;10.924;2023-06-26T03:10:00;5.75;;;5.25;;
38085;SDS011;23896;50.678;10.924;2023-06-26T03:12:27;5.60;;;5.10;;
38085;SDS011;23896;50.678;10.924;2023-06-26T03:14:53;5.75;;;5.25;;
38085;SDS011;23896;50.678;10.924;2023-06-26T03:17:19;5.30;;;4.90;;
38085;SDS011;23896;50.678;10.924;2023-06-26T03:19:45;5.57;;;5.07;;
38085;SDS011;23896;50.678;10.924;2023-06-26T03:22:11;5.15;;;4.75;;
38085;SDS011;23896;50.678;10.924;2023-06-26T03:24:37;5.63;;;5.13;;
38085;SDS011;23896;50.678;10.924;2023-06-26T03:27:04;5.45;;;5.03;;
38085;SDS011;23896;50.678;10.924;2023-06-26T03:29:30;5.50;;;5.00;;
38085;SDS011;23896;50.678;10.924;2023-06-26T03:31:56;6.03;;;5.53;;
38085;SDS011;23896;50.678;10.924;2023-06-26T03:34:22;5.75;;;5.25;;
38085;SDS011;23896;50.678;10.924;2023-06-26T03:36:48;5.28;;;4.78;;
38085;SDS011;23896;50.678;10.924;2023-06-26T03:39:14;5.50;;;5.00;;
38085;SDS011;23896;50.678;10.924;2023-06-26T03:41:41;5.38;;;4.88;;
38085;SDS011;23896;50.678;10.924;2023-06-26T03:44:10;6.07;;;5.35;;
38085;SDS011;23896;50.678;10.924;2023-06-26T03:46:37;5.35;;;4.95;;
38085;SDS011;23896;50.678;10.924;2023-06-26T03:49:03;8.02;;;5.55;;
38085;SDS011;23896;50.678;10.924;2023-06-26T03:51:29;5.20;;;4.70;;
38085;SDS011;23896;50.678;10.924;2023-06-26T03:53:55;5.53;;;5.05;;
38085;SDS011;23896;50.678;10.924;2023-06-26T03:56:21;5.22;;;4.82;;
38085;SDS011;23896;50.678;10.924;2023-06-26T03:58:47;6.07;;;5.30;;
38085;SDS011;23896;50.678;10.924;2023-06-26T04:01:13;5.32;;;4.93;;
38085;SDS011;23896;50.678;10.924;2023-06-26T04:03:39;5.45;;;4.50;;
38085;SDS011;23896;50.678;10.924;2023-06-26T04:06:06;5.63;;;5.13;;
38085;SDS011;23896;50.678;10.924;2023-06-26T04:08:32;5.30;;;4.80;;
38085;SDS011;23896;50.678;10.924;2023-06-26T04:10:58;5.05;;;4.65;;
38085;SDS011;23896;50.678;10.924;2023-06-26T04:13:24;5.25;;;4.75;;
38085;SDS011;23896;50.678;10.924;2023-06-26T04:15:51;6.47;;;5.03;;
38085;SDS011;23896;50.678;10.924;2023-06-26T04:18:17;6.43;;;5.18;;
38085;SDS011;23896;50.678;10.924;2023-06-26T04:21:03;5.25;;;4.82;;
38085;SDS011;23896;50.678;10.924;2023-06-26T04:23:29;5.72;;;5.22;;
38085;SDS011;23896;50.678;10.924;2023-06-26T04:25:56;5.25;;;4.60;;
38085;SDS011;23896;50.678;10.924;2023-06-26T04:28:23;6.90;;;5.03;;
38085;SDS011;23896;50.678;10.924;2023-06-26T04:30:49;6.32;;;5.20;;
38085;SDS011;23896;50.678;10.924;2023-06-26T04:33:15;5.15;;;4.65;;
38085;SDS011;23896;50.678;10.924;2023-06-26T04:35:48;5.07;;;4.57;;
38085;SDS011;23896;50.678;10.924;2023-06-26T04:38:14;4.90;;;4.50;;
38085;SDS011;23896;50.678;10.924;2023-06-26T04:40:43;7.00;;;5.03;;
38085;SDS011;23896;50.678;10.924;2023-06-26T04:43:10;4.78;;;4.38;;
38085;SDS011;23896;50.678;10.924;2023-06-26T04:45:36;4.68;;;4.28;;
38085;SDS011;23896;50.678;10.924;2023-06-26T04:48:03;4.45;;;4.07;;
38085;SDS011;23896;50.678;10.924;2023-06-26T04:50:30;5.80;;;4.75;;
38085;SDS011;23896;50.678;10.924;2023-06-26T04:52:56;4.43;;;4.03;;
38085;SDS011;23896;50.678;10.924;2023-06-26T04:55:24;5.05;;;4.47;;
38085;SDS011;23896;50.678;10.924;2023-06-26T04:57:50;5.25;;;4.82;;
38085;SDS011;23896;50.678;10.924;2023-06-26T05:00:16;5.07;;;3.88;;
38085;SDS011;23896;50.678;10.924;2023-06-26T05:02:43;4.50;;;4.10;;
38085;SDS011;23896;50.678;10.924;2023-06-26T05:05:09;4.80;;;4.40;;
38085;SDS011;23896;50.678;10.924;2023-06-26T05:07:35;4.55;;;4.25;;
38085;SDS011;23896;50.678;10.924;2023-06-26T05:10:02;4.70;;;3.85;;
38085;SDS011;23896;50.678;10.924;2023-06-26T05:12:28;4.25;;;3.85;;
38085;SDS011;23896;50.678;10.924;2023-06-26T05:14:54;5.35;;;4.55;;
38085;SDS011;23896;50.678;10.924;2023-06-26T05:17:20;5.55;;;4.10;;
38085;SDS011;23896;50.678;10.924;2023-06-26T05:19:46;4.90;;;4.50;;
38085;SDS011;23896;50.678;10.924;2023-06-26T05:22:12;4.63;;;4.20;;
38085;SDS011;23896;50.678;10.924;2023-06-26T05:24:39;5.55;;;4.63;;
38085;SDS011;23896;50.678;10.924;2023-06-26T05:27:05;4.82;;;4.43;;
38085;SDS011;23896;50.678;10.924;2023-06-26T05:29:34;5.15;;;4.75;;
38085;SDS011;23896;50.678;10.924;2023-06-26T05:32:04;5.35;;;4.85;;
38085;SDS011;23896;50.678;10.924;2023-06-26T05:34:33;4.63;;;4.25;;
38085;SDS011;23896;50.678;10.924;2023-06-26T05:37:00;4.80;;;4.40;;
38085;SDS011;23896;50.678;10.924;2023-06-26T05:39:26;4.82;;;4.53;;
38085;SDS011;23896;50.678;10.924;2023-06-26T05:41:52;5.82;;;5.28;;
38085;SDS011;23896;50.678;10.924;2023-06-26T05:44:19;5.47;;;4.28;;
38085;SDS011;23896;50.678;10.924;2023-06-26T05:46:45;5.00;;;4.60;;
38085;SDS011;23896;50.678;10.924;2023-06-26T05:49:13;5.82;;;5.38;;
38085;SDS011;23896;50.678;10.924;2023-06-26T05:51:39;5.07;;;4.65;;
38085;SDS011;23896;50.678;10.924;2023-06-26T05:54:05;5.57;;;5.13;;
38085;SDS011;23896;50.678;10.924;2023-06-26T05:56:32;5.70;;;4.43;;
38085;SDS011;23896;50.678;10.924;2023-06-26T05:58:59;5.05;;;4.43;;
38085;SDS011;23896;50.678;10.924;2023-06-26T06:01:26;5.78;;;5.28;;
38085;SDS011;23896;50.678;10.924;2023-06-26T06:03:52;4.60;;;4.20;;
38085;SDS011;23896;50.678;10.924;2023-06-26T06:06:18;5.10;;;4.68;;
38085;SDS011;23896;50.678;10.924;2023-06-26T06:08:45;4.80;;;4.40;;
38085;SDS011;23896;50.678;10.924;2023-06-26T06:11:11;5.28;;;4.88;;
38085;SDS011;23896;50.678;10.924;2023-06-26T06:13:37;5.15;;;4.65;;
38085;SDS011;23896;50.678;10.924;2023-06-26T06:16:06;5.15;;;4.75;;
38085;SDS011;23896;50.678;10.924;2023-06-26T06:18:33;4.70;;;4.38;;
38085;SDS011;23896;50.678;10.924;2023-06-26T06:21:05;7.73;;;4.97;;
38085;SDS011;23896;50.678;10.924;2023-06-26T06:23:31;5.60;;;4.55;;
38085;SDS011;23896;50.678;10.924;2023-06-26T06:25:57;4.85;;;4.45;;
38085;SDS011;23896;50.678;10.924;2023-06-26T06:28:24;5.20;;;4.70;;
38085;SDS011;23896;50.678;10.924;2023-06-26T06:30:50;5.10;;;4.70;;
38085;SDS011;23896;50.678;10.924;2023-06-26T06:33:17;5.28;;;4.60;;
38085;SDS011;23896;50.678;10.924;2023-06-26T06:35:43;7.43;;;5.15;;
38085;SDS011;23896;50.678;10.924;2023-06-26T06:38:11;5.25;;;4.75;;
38085;SDS011;23896;50.678;10.924;2023-06-26T06:40:37;7.00;;;4.80;;
38085;SDS011;23896;50.678;10.924;2023-06-26T06:43:03;4.70;;;4.40;;
38085;SDS011;23896;50.678;10.924;2023-06-26T06:45:29;5.28;;;4.88;;
38085;SDS011;23896;50.678;10.924;2023-06-26T06:47:56;5.15;;;4.75;;
38085;SDS011;23896;50.678;10.924;2023-06-26T06:50:32;5.18;;;4.70;;
38085;SDS011;23896;50.678;10.924;2023-06-26T06:52:59;5.05;;;4.65;;
38085;SDS011;23896;50.678;10.924;2023-06-26T06:55:25;5.30;;;4.80;;
38085;SDS011;23896;50.678;10.924;2023-06-26T06:57:51;7.00;;;4.47;;
38085;SDS011;23896;50.678;10.924;2023-06-26T07:00:20;5.10;;;4.70;;
38085;SDS011;23896;50.678;10.924;2023-06-26T07:02:47;5.50;;;5.10;;
38085;SDS011;23896;50.678;10.924;2023-06-26T07:05:16;5.25;;;4.85;;
38085;SDS011;23896;50.678;10.924;2023-06-26T07:07:42;5.18;;;4.75;;
38085;SDS011;23896;50.678;10.924;2023-06-26T07:10:09;7.20;;;4.90;;
38085;SDS011;23896;50.678;10.924;2023-06-26T07:12:36;5.60;;;5.20;;
38085;SDS011;23896;50.678;10.924;2023-06-26T07:15:05;5.43;;;4.93;;
38085;SDS011;23896;50.678;10.924;2023-06-26T07:17:32;5.15;;;4.75;;
38085;SDS011;23896;50.678;10.924;2023-06-26T07:20:01;6.03;;;4.90;;
38085;SDS011;23896;50.678;10.924;2023-06-26T07:22:31;5.55;;;5.05;;
38085;SDS011;23896;50.678;10.924;2023-06-26T07:24:58;5.28;;;4.78;;
38085;SDS011;23896;50.678;10.924;2023-06-26T07:27:24;5.53;;;5.13;;
38085;SDS011;23896;50.678;10.924;2023-06-26T07:29:50;6.40;;;5.25;;
38085;SDS011;23896;50.678;10.924;2023-06-26T07:32:18;4.88;;;4.47;;
38085;SDS011;23896;50.678;10.924;2023-06-26T07:34:44;7.38;;;5.60;;
38085;SDS011;23896;50.678;10.924;2023-06-26T07:37:10;5.50;;;5.03;;
38085;SDS011;23896;50.678;10.924;2023-06-26T07:39:36;5.20;;;4.80;;
38085;SDS011;23896;50.678;10.924;2023-06-26T07:42:02;5.65;;;5.18;;
38085;SDS011;23896;50.678;10.924;2023-06-26T07:44:28;5.18;;;4.78;;
38085;SDS011;23896;50.678;10.924;2023-06-26T07:46:55;4.68;;;4.38;;
38085;SDS011;23896;50.678;10.924;2023-06-26T07:49:21;7.03;;;5.25;;
38085;SDS011;23896;50.678;10.924;2023-06-26T07:51:47;5.30;;;4.90;;
38085;SDS011;23896;50.678;10.924;2023-06-26T07:54:16;5.75;;;4.88;;
38085;SDS011;23896;50.678;10.924;2023-06-26T07:56:53;5.60;;;5.20;;
38085;SDS011;23896;50.678;10.924;2023-06-26T07:59:23;5.32;;;4.45;;
38085;SDS011;23896;50.678;10.924;2023-06-26T08:01:50;6.63;;;5.40;;
38085;SDS011;23896;50.678;10.924;2023-06-26T08:04:18;5.72;;;5.03;;
38085;SDS011;23896;50.678;10.924;2023-06-26T08:06:45;4.95;;;4.55;;
38085;SDS011;23896;50.678;10.924;2023-06-26T08:09:14;5.47;;;5.07;;
38085;SDS011;23896;50.678;10.924;2023-06-26T08:11:40;5.22;;;4.80;;
38085;SDS011;23896;50.678;10.924;2023-06-26T08:14:11;8.32;;;5.20;;
38085;SDS011;23896;50.678;10.924;2023-06-26T08:16:39;5.45;;;5.05;;
38085;SDS011;23896;50.678;10.924;2023-06-26T08:19:07;5.10;;;4.60;;
38085;SDS011;23896;50.678;10.924;2023-06-26T08:21:33;5.22;;;4.70;;
38085;SDS011;23896;50.678;10.924;2023-06-26T08:23:59;6.10;;;4.85;;
38085;SDS011;23896;50.678;10.924;2023-06-26T08:26:26;5.15;;;4.75;;
38085;SDS011;23896;50.678;10.924;2023-06-26T08:28:52;6.18;;;5.55;;
38085;SDS011;23896;50.678;10.924;2023-06-26T08:31:18;5.00;;;4.60;;
38085;SDS011;23896;50.678;10.924;2023-06-26T08:33:44;5.38;;;4.97;;
38085;SDS011;23896;50.678;10.924;2023-06-26T08:36:11;5.40;;;5.00;;
38085;SDS011;23896;50.678;10.924;2023-06-26T08:38:41;5.90;;;4.68;;
38085;SDS011;23896;50.678;10.924;2023-06-26T08:41:10;5.47;;;5.07;;
38085;SDS011;23896;50.678;10.924;2023-06-26T08:43:36;5.63;;;4.80;;
38085;SDS011;23896;50.678;10.924;2023-06-26T08:46:02;5.85;;;5.35;;
38085;SDS011;23896;50.678;10.924;2023-06-26T08:48:29;5.57;;;5.07;;
38085;SDS011;23896;50.678;10.924;2023-06-26T08:51:07;4.95;;;4.55;;
38085;SDS011;23896;50.678;10.924;2023-06-26T08:53:40;6.50;;;5.50;;
38085;SDS011;23896;50.678;10.924;2023-06-26T08:56:10;5.80;;;4.93;;
38085;SDS011;23896;50.678;10.924;2023-06-26T08:58:38;5.47;;;5.07;;
38085;SDS011;23896;50.678;10.924;2023-06-26T09:01:06;6.22;;;5.38;;
38085;SDS011;23896;50.678;10.924;2023-06-26T09:03:35;5.47;;;4.97;;
38085;SDS011;23896;50.678;10.924;2023-06-26T09:06:01;5.72;;;5.20;;
38085;SDS011;23896;50.678;10.924;2023-06-26T09:08:46;6.35;;;5.60;;
38085;SDS011;23896;50.678;10.924;2023-06-26T09:11:12;5.63;;;5.13;;
38085;SDS011;23896;50.678;10.924;2023-06-26T09:13:39;5.97;;;5.45;;
38085;SDS011;23896;50.678;10.924;2023-06-26T09:16:07;5.57;;;5.18;;
38085;SDS011;23896;50.678;10.924;2023-06-26T09:18:33;5.68;;;5.18;;
38085;SDS011;23896;50.678;10.924;2023-06-26T09:21:00;5.43;;;5.03;;
38085;SDS011;23896;50.678;10.924;2023-06-26T09:23:26;5.95;;;5.55;;
38085;SDS011;23896;50.678;10.924;2023-06-26T09:25:53;8.85;;;5.18;;
38085;SDS011;23896;50.678;10.924;2023-06-26T09:28:19;6.35;;;5.15;;
38085;SDS011;23896;50.678;10.924;2023-06-26T09:30:45;5.97;;;5.47;;
38085;SDS011;23896;50.678;10.924;2023-06-26T09:33:15;5.32;;;4.93;;
38085;SDS011;23896;50.678;10.924;2023-06-26T09:35:43;5.50;;;5.07;;
38085;SDS011;23896;50.678;10.924;2023-06-26T09:38:09;9.20;;;4.97;;
38085;SDS011;23896;50.678;10.924;2023-06-26T09:40:36;6.32;;;5.75;;
38085;SDS011;23896;50.678;10.924;2023-06-26T09:43:07;5.45;;;4.95;;
38085;SDS011;23896;50.678;10.924;2023-06-26T09:45:37;5.80;;;5.28;;
38085;SDS011;23896;50.678;10.924;2023-06-26T09:48:05;5.85;;;5.25;;
38085;SDS011;23896;50.678;10.924;2023-06-26T09:50:36;6.88;;;5.40;;
38085;SDS011;23896;50.678;10.924;2023-06-26T09:53:08;5.57;;;5.07;;
38085;SDS011;23896;50.678;10.924;2023-06-26T09:55:35;5.75;;;5.25;;
38085;SDS011;23896;50.678;10.924;2023-06-26T09:58:02;5.25;;;4.85;;
38085;SDS011;23896;50.678;10.924;2023-06-26T10:00:32;6.20;;;4.70;;
38085;SDS011;23896;50.678;10.924;2023-06-26T10:03:01;5.78;;;5.35;;
38085;SDS011;23896;50.678;10.924;2023-06-26T10:05:28;7.05;;;6.38;;
38085;SDS011;23896;50.678;10.924;2023-06-26T10:07:54;5.63;;;5.22;;
38085;SDS011;23896;50.678;10.924;2023-06-26T10:10:22;6.13;;;5.03;;
38085;SDS011;23896;50.678;10.924;2023-06-26T10:12:51;6.07;;;5.55;;
38085;SDS011;23896;50.678;10.924;2023-06-26T10:15:17;5.88;;;5.47;;
38085;SDS011;23896;50.678;10.924;2023-06-26T10:17:43;5.78;;;5.05;;
38085;SDS011;23896;50.678;10.924;2023-06-26T10:20:11;5.55;;;5.15;;
38085;SDS011;23896;50.678;10.924;2023-06-26T10:22:41;7.38;;;5.85;;
38085;SDS011;23896;50.678;10.924;2023-06-26T10:25:08;5.40;;;5.00;;
38085;SDS011;23896;50.678;10.924;2023-06-26T10:27:36;5.95;;;5.45;;
38085;SDS011;23896;50.678;10.924;2023-06-26T10:30:04;8.57;;;5.57;;
38085;SDS011;23896;50.678;10.924;2023-06-26T10:32:31;6.10;;;5.28;;
38085;SDS011;23896;50.678;10.924;2023-06-26T10:34:58;5.18;;;4.70;;
38085;SDS011;23896;50.678;10.924;2023-06-26T10:40:10;8.32;;;5.68;;
38085;SDS011;23896;50.678;10.924;2023-06-26T10:42:37;5.70;;;5.30;;
38085;SDS011;23896;50.678;10.924;2023-06-26T10:45:16;5.40;;;4.90;;
38085;SDS011;23896;50.678;10.924;2023-06-26T10:47:45;5.53;;;5.03;;
38085;SDS011;23896;50.678;10.924;2023-06-26T10:50:16;5.63;;;5.22;;
38085;SDS011;23896;50.678;10.924;2023-06-26T10:52:44;5.63;;;5.20;;
38085;SDS011;23896;50.678;10.924;2023-06-26T10:55:10;5.05;;;4.65;;
38085;SDS011;23896;50.678;10.924;2023-06-26T10:57:37;5.65;;;5.25;;
38085;SDS011;23896;50.678;10.924;2023-06-26T11:00:09;7.72;;;5.05;;
38085;SDS011;23896;50.678;10.924;2023-06-26T11:05:23;5.28;;;4.63;;
38085;SDS011;23896;50.678;10.924;2023-06-26T11:10:29;5.15;;;4.75;;
38085;SDS011;23896;50.678;10.924;2023-06-26T11:12:58;5.22;;;4.82;;
38085;SDS011;23896;50.678;10.924;2023-06-26T11:15:27;5.43;;;4.93;;
38085;SDS011;23896;50.678;10.924;2023-06-26T11:17:54;5.93;;;5.43;;
38085;SDS011;23896;50.678;10.924;2023-06-26T11:20:23;6.90;;;5.35;;
38085;SDS011;23896;50.678;10.924;2023-06-26T11:22:49;5.28;;;4.78;;
38085;SDS011;23896;50.678;10.924;2023-06-26T11:25:21;5.28;;;4.88;;
38085;SDS011;23896;50.678;10.924;2023-06-26T11:27:48;5.25;;;4.85;;
38085;SDS011;23896;50.678;10.924;2023-06-26T11:30:23;6.00;;;5.50;;
38085;SDS011;23896;50.678;10.924;2023-06-26T11:32:50;7.40;;;5.13;;
38085;SDS011;23896;50.678;10.924;2023-06-26T11:35:23;5.55;;;5.15;;
38085;SDS011;23896;50.678;10.924;2023-06-26T11:37:56;4.95;;;4.63;;
38085;SDS011;23896;50.678;10.924;2023-06-26T11:40:25;5.97;;;5.47;;
38085;SDS011;23896;50.678;10.924;2023-06-26T11:42:53;5.40;;;5.00;;
38085;SDS011;23896;50.678;10.924;2023-06-26T11:45:22;5.10;;;4.72;;
38085;SDS011;23896;50.678;10.924;2023-06-26T11:47:48;6.72;;;5.07;;
38085;SDS011;23896;50.678;10.924;2023-06-26T11:50:18;6.88;;;5.07;;
38085;SDS011;23896;50.678;10.924;2023-06-26T11:52:44;5.97;;;5.50;;
38085;SDS011;23896;50.678;10.924;2023-06-26T11:55:10;5.93;;;5.43;;
38085;SDS011;23896;50.678;10.924;2023-06-26T11:57:37;5.55;;;5.05;;
38085;SDS011;23896;50.678;10.924;2023-06-26T12:00:11;6.80;;;5.03;;
38085;SDS011;23896;50.678;10.924;2023-06-26T12:02:37;6.30;;;5.70;;
38085;SDS011;23896;50.678;10.924;2023-06-26T12:05:04;7.55;;;5.55;;
38085;SDS011;23896;50.678;10.924;2023-06-26T12:07:30;6.15;;;5.65;;
38085;SDS011;23896;50.678;10.924;2023-06-26T12:09:56;5.47;;;5.07;;
38085;SDS011;23896;50.678;10.924;2023-06-26T12:12:23;7.03;;;6.18;;
38085;SDS011;23896;50.678;10.924;2023-06-26T12:14:51;6.72;;;4.80;;
38085;SDS011;23896;50.678;10.924;2023-06-26T12:17:17;6.30;;;5.68;;
38085;SDS011;23896;50.678;10.924;2023-06-26T12:19:48;5.80;;;5.25;;
38085;SDS011;23896;50.678;10.924;2023-06-26T12:22:15;5.65;;;5.10;;
38085;SDS011;23896;50.678;10.924;2023-06-26T12:24:41;6.15;;;5.55;;
38085;SDS011;23896;50.678;10.924;2023-06-26T12:27:09;5.90;;;5.40;;
38085;SDS011;23896;50.678;10.924;2023-06-26T12:29:35;6.28;;;5.70;;
38085;SDS011;23896;50.678;10.924;2023-06-26T12:32:02;5.80;;;5.28;;
38085;SDS011;23896;50.678;10.924;2023-06-26T12:34:31;5.85;;;5.43;;
38085;SDS011;23896;50.678;10.924;2023-06-26T12:37:02;6.43;;;5.82;;
38085;SDS011;23896;50.678;10.924;2023-06-26T12:39:29;6.38;;;5.78;;
38085;SDS011;23896;50.678;10.924;2023-06-26T12:41:56;5.95;;;5.45;;
38085;SDS011;23896;50.678;10.924;2023-06-26T12:44:25;6.72;;;5.82;;
38085;SDS011;23896;50.678;10.924;2023-06-26T12:46:54;7.45;;;5.72;;
38085;SDS011;23896;50.678;10.924;2023-06-26T12:49:30;6.45;;;5.95;;
38085;SDS011;23896;50.678;10.924;2023-06-26T12:51:57;5.95;;;5.28;;
38085;SDS011;23896;50.678;10.924;2023-06-26T12:54:24;6.35;;;5.70;;
38085;SDS011;23896;50.678;10.924;2023-06-26T12:56:51;6.18;;;5.60;;
38085;SDS011;23896;50.678;10.924;2023-06-26T12:59:17;6.15;;;5.65;;
38085;SDS011;23896;50.678;10.924;2023-06-26T13:01:46;6.20;;;5.70;;
38085;SDS011;23896;50.678;10.924;2023-06-26T13:04:13;6.22;;;5.72;;
38085;SDS011;23896;50.678;10.924;2023-06-26T13:06:39;6.10;;;5.50;;
38085;SDS011;23896;50.678;10.924;2023-06-26T13:09:05;6.03;;;5.30;;
38085;SDS011;23896;50.678;10.924;2023-06-26T13:11:32;5.97;;;5.15;;
38085;SDS011;23896;50.678;10.924;2023-06-26T13:13:58;6.70;;;6.10;;
38085;SDS011;23896;50.678;10.924;2023-06-26T13:16:24;5.90;;;5.32;;
38085;SDS011;23896;50.678;10.924;2023-06-26T13:18:50;5.45;;;5.03;;
38085;SDS011;23896;50.678;10.924;2023-06-26T13:21:23;5.75;;;5.32;;
38085;SDS011;23896;50.678;10.924;2023-06-26T13:23:49;6.97;;;5.40;;
38085;SDS011;23896;50.678;10.924;2023-06-26T13:26:15;5.65;;;5.15;;
38085;SDS011;23896;50.678;10.924;2023-06-26T13:28:42;5.50;;;4.88;;
38085;SDS011;23896;50.678;10.924;2023-06-26T13:31:09;6.22;;;5.72;;
38085;SDS011;23896;50.678;10.924;2023-06-26T13:33:41;5.97;;;5.47;;
38085;SDS011;23896;50.678;10.924;2023-06-26T13:36:07;6.32;;;5.72;;
38085;SDS011;23896;50.678;10.924;2023-06-26T13:38:37;5.78;;;5.28;;
38085;SDS011;23896;50.678;10.924;2023-06-26T13:41:05;5.88;;;5.00;;
38085;SDS011;23896;50.678;10.924;2023-06-26T13:43:32;5.72;;;5.13;;
38085;SDS011;23896;50.678;10.924;2023-06-26T13:46:00;6.45;;;5.85;;
38085;SDS011;23896;50.678;10.924;2023-06-26T13:48:26;7.25;;;5.55;;
38085;SDS011;23896;50.678;10.924;2023-06-26T13:50:53;5.20;;;4.70;;
38085;SDS011;23896;50.678;10.924;2023-06-26T13:53:20;6.32;;;5.82;;
38085;SDS011;23896;50.678;10.924;2023-06-26T13:55:47;5.97;;;5.35;;
38085;SDS011;23896;50.678;10.924;2023-06-26T13:58:13;7.07;;;6.35;;
38085;SDS011;23896;50.678;10.924;2023-06-26T14:00:40;6.82;;;5.57;;
38085;SDS011;23896;50.678;10.924;2023-06-26T14:03:06;6.13;;;5.63;;
38085;SDS011;23896;50.678;10.924;2023-06-26T14:05:34;6.05;;;5.47;;
38085;SDS011;23896;50.678;10.924;2023-06-26T14:08:02;6.30;;;5.40;;
38085;SDS011;23896;50.678;10.924;2023-06-26T14:10:31;6.35;;;5.75;;
38085;SDS011;23896;50.678;10.924;2023-06-26T14:12:58;6.15;;;5.65;;
38085;SDS011;23896;50.678;10.924;2023-06-26T14:15:24;8.02;;;6.55;;
38085;SDS011;23896;50.678;10.924;2023-06-26T14:17:53;10.90;;;6.22;;
38085;SDS011;23896;50.678;10.924;2023-06-26T14:20:21;8.88;;;6.28;;
38085;SDS011;23896;50.678;10.924;2023-06-26T14:22:50;9.23;;;6.70;;
38085;SDS011;23896;50.678;10.924;2023-06-26T14:25:16;9.93;;;7.07;;
38085;SDS011;23896;50.678;10.924;2023-06-26T14:27:43;10.82;;;7.20;;
38085;SDS011;23896;50.678;10.924;2023-06-26T14:30:09;8.35;;;6.47;;
38085;SDS011;23896;50.678;10.924;2023-06-26T14:32:35;7.78;;;6.93;;
38085;SDS011;23896;50.678;10.924;2023-06-26T14:35:02;11.05;;;6.35;;
38085;SDS011;23896;50.678;10.924;2023-06-26T14:37:29;7.05;;;6.45;;
38085;SDS011;23896;50.678;10.924;2023-06-26T14:39:56;11.27;;;6.93;;
38085;SDS011;23896;50.678;10.924;2023-06-26T14:42:22;9.40;;;6.88;;
38085;SDS011;23896;50.678;10.924;2023-06-26T14:44:54;7.90;;;6.80;;